createdAt,value
2017-07-21T00:00:02.886Z,0
2017-07-21T00:01:04.120Z,0
2017-07-21T00:02:05.364Z,0
2017-07-21T00:03:06.604Z,0
2017-07-21T00:04:07.848Z,0
2017-07-21T00:05:09.112Z,0
2017-07-21T00:06:10.345Z,0
2017-07-21T00:07:11.573Z,0
2017-07-21T00:08:12.818Z,0
2017-07-21T00:09:14.077Z,0
2017-07-21T00:10:15.391Z,0
2017-07-21T00:11:16.637Z,0
2017-07-21T00:12:17.931Z,0
2017-07-21T00:13:19.171Z,0
2017-07-21T00:14:20.422Z,0
2017-07-21T00:15:21.678Z,0
2017-07-21T00:16:22.921Z,0
2017-07-21T00:17:24.177Z,0
2017-07-21T00:18:25.432Z,0
2017-07-21T00:19:26.669Z,0
2017-07-21T00:20:27.912Z,0
2017-07-21T00:21:29.147Z,0
2017-07-21T00:22:30.465Z,0
2017-07-21T00:23:31.812Z,0
2017-07-21T00:24:33.052Z,0
2017-07-21T00:25:34.292Z,0
2017-07-21T00:26:35.536Z,0
2017-07-21T00:27:36.800Z,0
2017-07-21T00:28:38.095Z,0
2017-07-21T00:29:39.331Z,0
2017-07-21T00:30:40.574Z,0
2017-07-21T00:31:41.825Z,0
2017-07-21T00:32:43.064Z,0
2017-07-21T00:33:44.315Z,0
2017-07-21T00:34:45.578Z,0
2017-07-21T00:35:46.805Z,0
2017-07-21T00:36:48.173Z,0
2017-07-21T00:37:49.410Z,0
2017-07-21T00:38:50.643Z,0
2017-07-21T00:39:51.949Z,0
2017-07-21T00:40:53.169Z,0
2017-07-21T00:41:54.528Z,0
2017-07-21T00:42:55.765Z,0
2017-07-21T00:43:57.004Z,0
2017-07-21T00:44:58.243Z,0
2017-07-21T00:45:59.484Z,0
2017-07-21T00:47:00.763Z,0
2017-07-21T00:48:02.041Z,0
2017-07-21T00:49:03.289Z,0
2017-07-21T00:50:04.528Z,0
2017-07-21T00:51:05.787Z,0
2017-07-21T00:52:07.053Z,0
2017-07-21T00:53:08.313Z,0
2017-07-21T00:54:09.587Z,0
2017-07-21T00:55:10.872Z,0
2017-07-21T00:56:12.122Z,0
2017-07-21T00:57:13.370Z,0
2017-07-21T00:58:14.609Z,0
2017-07-21T00:59:15.964Z,0
2017-07-21T01:00:17.099Z,0
2017-07-21T01:01:18.336Z,0
2017-07-21T01:02:19.679Z,0
2017-07-21T01:03:20.916Z,0
2017-07-21T01:04:22.153Z,0
2017-07-21T01:05:23.400Z,0
2017-07-21T01:06:24.633Z,0
2017-07-21T01:07:25.973Z,0
2017-07-21T01:08:27.213Z,0
2017-07-21T01:09:28.442Z,0
2017-07-21T01:10:29.681Z,0
2017-07-21T01:11:30.942Z,0
2017-07-21T01:12:32.204Z,0
2017-07-21T01:13:33.490Z,0
2017-07-21T01:14:34.790Z,0
2017-07-21T01:15:36.024Z,0
2017-07-21T01:16:37.263Z,0
2017-07-21T01:17:38.502Z,0
2017-07-21T01:18:39.827Z,0
2017-07-21T01:19:41.069Z,0
2017-07-21T01:20:42.311Z,0
2017-07-21T01:21:43.548Z,0
2017-07-21T01:22:44.799Z,0
2017-07-21T01:23:46.099Z,0
2017-07-21T01:24:47.327Z,0
2017-07-21T01:25:48.697Z,0
2017-07-21T01:26:49.914Z,0
2017-07-21T01:27:51.170Z,0
2017-07-21T01:28:52.384Z,0
2017-07-21T01:29:53.623Z,0
2017-07-21T01:30:54.921Z,0
2017-07-21T01:31:56.183Z,0
2017-07-21T01:32:57.518Z,0
2017-07-21T01:33:58.745Z,0
2017-07-21T01:34:59.998Z,0
2017-07-21T01:36:01.235Z,0
2017-07-21T01:37:02.476Z,0
2017-07-21T01:38:03.827Z,0
2017-07-21T01:39:05.040Z,0
2017-07-21T01:40:06.283Z,0
2017-07-21T01:41:07.520Z,0
2017-07-21T01:42:08.761Z,0
2017-07-21T01:43:10.063Z,0
2017-07-21T01:44:11.280Z,0
2017-07-21T01:45:12.526Z,0
2017-07-21T01:46:13.827Z,0
2017-07-21T01:47:15.060Z,0
2017-07-21T01:48:16.297Z,0
2017-07-21T01:49:17.565Z,0
2017-07-21T01:50:18.833Z,0
2017-07-21T01:51:20.061Z,0
2017-07-21T01:52:21.390Z,0
2017-07-21T01:53:22.630Z,0
2017-07-21T01:54:23.867Z,0
2017-07-21T01:55:25.097Z,0
2017-07-21T01:56:26.334Z,0
2017-07-21T01:57:27.588Z,0
2017-07-21T01:58:28.827Z,0
2017-07-21T01:59:30.068Z,0
2017-07-21T02:00:31.305Z,0
2017-07-21T02:01:32.589Z,0
2017-07-21T02:02:33.812Z,0
2017-07-21T02:03:35.122Z,0
2017-07-21T02:04:36.358Z,0
2017-07-21T02:05:37.636Z,0
2017-07-21T02:06:38.886Z,0
2017-07-21T02:07:40.136Z,0
2017-07-21T02:08:41.393Z,0
2017-07-21T02:09:42.625Z,0
2017-07-21T02:10:43.962Z,0
2017-07-21T02:11:45.195Z,0
2017-07-21T02:12:46.483Z,0
2017-07-21T02:13:47.854Z,0
2017-07-21T02:14:49.080Z,0
2017-07-21T02:15:50.338Z,0
2017-07-21T02:16:51.573Z,0
2017-07-21T02:17:52.924Z,0
2017-07-21T02:18:54.159Z,0
2017-07-21T02:19:55.394Z,0
2017-07-21T02:20:56.626Z,0
2017-07-21T02:21:57.863Z,0
2017-07-21T02:22:59.128Z,0
2017-07-21T02:24:00.396Z,0
2017-07-21T02:25:01.659Z,0
2017-07-21T02:26:02.873Z,0
2017-07-21T02:27:04.125Z,0
2017-07-21T02:28:05.374Z,0
2017-07-21T02:29:06.598Z,0
2017-07-21T02:30:07.847Z,0
2017-07-21T02:31:09.086Z,0
2017-07-21T02:32:10.327Z,0
2017-07-21T02:33:11.568Z,0
2017-07-21T02:34:12.805Z,0
2017-07-21T02:35:14.105Z,0
2017-07-21T02:36:15.342Z,0
2017-07-21T02:37:16.662Z,0
2017-07-21T02:38:17.900Z,0
2017-07-21T02:39:19.139Z,0
2017-07-21T02:40:20.378Z,0
2017-07-21T02:41:21.606Z,0
2017-07-21T02:42:22.849Z,0
2017-07-21T02:43:24.097Z,0
2017-07-21T02:44:25.370Z,0
2017-07-21T02:45:26.617Z,0
2017-07-21T02:46:27.884Z,0
2017-07-21T02:47:29.121Z,0
2017-07-21T02:48:30.352Z,0
2017-07-21T02:49:31.683Z,0
2017-07-21T02:50:32.926Z,0
2017-07-21T02:51:34.155Z,0
2017-07-21T02:52:35.420Z,4
2017-07-21T02:53:36.647Z,4
2017-07-21T02:54:37.905Z,4
2017-07-21T02:55:39.113Z,0
2017-07-21T02:56:40.402Z,4
2017-07-21T02:57:41.773Z,4
2017-07-21T02:58:43.002Z,4
2017-07-21T02:59:44.241Z,4
2017-07-21T03:00:45.480Z,8
2017-07-21T03:01:46.760Z,4
2017-07-21T03:02:48.011Z,8
2017-07-21T03:03:49.264Z,8
2017-07-21T03:04:50.486Z,8
2017-07-21T03:05:51.725Z,12
2017-07-21T03:06:52.976Z,12
2017-07-21T03:07:54.203Z,16
2017-07-21T03:08:55.430Z,16
2017-07-21T03:09:56.667Z,16
2017-07-21T03:10:57.913Z,24
2017-07-21T03:11:59.152Z,24
2017-07-21T03:13:00.380Z,28
2017-07-21T03:14:01.620Z,28
2017-07-21T03:15:02.954Z,36
2017-07-21T03:16:04.212Z,40
2017-07-21T03:17:05.425Z,44
2017-07-21T03:18:06.653Z,52
2017-07-21T03:19:07.995Z,56
2017-07-21T03:20:09.235Z,60
2017-07-21T03:21:10.484Z,68
2017-07-21T03:22:11.722Z,76
2017-07-21T03:23:12.961Z,84
2017-07-21T03:24:14.213Z,96
2017-07-21T03:25:15.427Z,104
2017-07-21T03:26:16.672Z,116
2017-07-21T03:27:17.903Z,128
2017-07-21T03:28:19.146Z,144
2017-07-21T03:29:20.501Z,156
2017-07-21T03:30:21.744Z,172
2017-07-21T03:31:22.973Z,188
2017-07-21T03:32:24.214Z,204
2017-07-21T03:33:25.445Z,220
2017-07-21T03:34:26.737Z,240
2017-07-21T03:35:28.073Z,260
2017-07-21T03:36:29.314Z,280
2017-07-21T03:37:30.554Z,304
2017-07-21T03:38:31.774Z,328
2017-07-21T03:39:33.012Z,352
2017-07-21T03:40:34.278Z,384
2017-07-21T03:41:35.606Z,412
2017-07-21T03:42:36.874Z,444
2017-07-21T03:43:38.218Z,476
2017-07-21T03:44:39.438Z,512
2017-07-21T03:45:40.674Z,544
2017-07-21T03:46:42.030Z,580
2017-07-21T03:47:43.266Z,624
2017-07-21T03:48:44.509Z,672
2017-07-21T03:49:45.742Z,720
2017-07-21T03:50:46.973Z,776
2017-07-21T03:51:48.197Z,828
2017-07-21T03:52:49.453Z,880
2017-07-21T03:53:50.696Z,928
2017-07-21T03:54:51.952Z,976
2017-07-21T03:55:53.190Z,1020
2017-07-21T03:56:54.429Z,1064
2017-07-21T03:57:55.670Z,1116
2017-07-21T03:58:56.917Z,1156
2017-07-21T03:59:58.176Z,1200
2017-07-21T04:00:59.525Z,1248
2017-07-21T04:02:00.758Z,1300
2017-07-21T04:03:02.009Z,1348
2017-07-21T04:04:03.242Z,1408
2017-07-21T04:05:04.473Z,1476
2017-07-21T04:06:05.711Z,1556
2017-07-21T04:07:06.953Z,1656
2017-07-21T04:08:08.218Z,1776
2017-07-21T04:09:09.459Z,1916
2017-07-21T04:10:10.698Z,2044
2017-07-21T04:11:11.937Z,2156
2017-07-21T04:12:13.254Z,2276
2017-07-21T04:13:14.495Z,2400
2017-07-21T04:14:15.736Z,2524
2017-07-21T04:15:16.967Z,2640
2017-07-21T04:16:18.212Z,2756
2017-07-21T04:17:19.478Z,2860
2017-07-21T04:18:20.711Z,2952
2017-07-21T04:19:21.972Z,3016
2017-07-21T04:20:23.214Z,3064
2017-07-21T04:21:24.548Z,3108
2017-07-21T04:22:25.853Z,3152
2017-07-21T04:23:27.091Z,3204
2017-07-21T04:24:28.337Z,3268
2017-07-21T04:25:29.579Z,3340
2017-07-21T04:26:30.816Z,3384
2017-07-21T04:27:32.053Z,3416
2017-07-21T04:28:33.291Z,3440
2017-07-21T04:29:34.540Z,3456
2017-07-21T04:30:35.777Z,3468
2017-07-21T04:31:37.050Z,3504
2017-07-21T04:32:38.405Z,3480
2017-07-21T04:33:39.678Z,3428
2017-07-21T04:34:40.917Z,3380
2017-07-21T04:35:42.170Z,3272
2017-07-21T04:36:43.403Z,3208
2017-07-21T04:37:44.654Z,3284
2017-07-21T04:38:45.896Z,3328
2017-07-21T04:39:47.127Z,3516
2017-07-21T04:40:48.409Z,3724
2017-07-21T04:41:49.658Z,3816
2017-07-21T04:42:50.891Z,3920
2017-07-21T04:43:52.133Z,4008
2017-07-21T04:44:53.371Z,4044
2017-07-21T04:45:54.620Z,3900
2017-07-21T04:46:55.969Z,3816
2017-07-21T04:47:57.204Z,3804
2017-07-21T04:48:58.442Z,3988
2017-07-21T04:49:59.681Z,4228
2017-07-21T04:51:00.921Z,4340
2017-07-21T04:52:02.212Z,4276
2017-07-21T04:53:03.484Z,4340
2017-07-21T04:54:04.698Z,4468
2017-07-21T04:55:05.953Z,4556
2017-07-21T04:56:07.171Z,4564
2017-07-21T04:57:08.416Z,4740
2017-07-21T04:58:09.657Z,4872
2017-07-21T04:59:10.904Z,4928
2017-07-21T05:00:12.146Z,5004
2017-07-21T05:01:13.399Z,5036
2017-07-21T05:02:14.625Z,5112
2017-07-21T05:03:15.853Z,5156
2017-07-21T05:04:17.105Z,5356
2017-07-21T05:05:18.388Z,5456
2017-07-21T05:06:19.637Z,5504
2017-07-21T05:07:20.888Z,5604
2017-07-21T05:08:22.120Z,5896
2017-07-21T05:09:23.385Z,6472
2017-07-21T05:10:24.605Z,7244
2017-07-21T05:11:25.864Z,8060
2017-07-21T05:12:27.135Z,9732
2017-07-21T05:13:28.413Z,10020
2017-07-21T05:14:29.751Z,10084
2017-07-21T05:15:30.994Z,10608
2017-07-21T05:16:32.261Z,10836
2017-07-21T05:17:33.492Z,11080
2017-07-21T05:18:34.753Z,11488
2017-07-21T05:19:35.997Z,11752
2017-07-21T05:20:37.228Z,12132
2017-07-21T05:21:38.476Z,12084
2017-07-21T05:22:39.717Z,10332
2017-07-21T05:23:40.962Z,13060
2017-07-21T05:24:42.245Z,13296
2017-07-21T05:25:43.507Z,13488
2017-07-21T05:26:44.753Z,13540
2017-07-21T05:27:46.000Z,13920
2017-07-21T05:28:47.243Z,14144
2017-07-21T05:29:48.488Z,13880
2017-07-21T05:30:49.729Z,14248
2017-07-21T05:31:50.968Z,14496
2017-07-21T05:32:52.206Z,14528
2017-07-21T05:33:53.508Z,14464
2017-07-21T05:34:54.752Z,14488
2017-07-21T05:35:55.994Z,14816
2017-07-21T05:36:57.244Z,14944
2017-07-21T05:37:58.489Z,13660
2017-07-21T05:38:59.779Z,14132
2017-07-21T05:40:01.026Z,14976
2017-07-21T05:41:02.308Z,16320
2017-07-21T05:42:03.562Z,17216
2017-07-21T05:43:04.798Z,16864
2017-07-21T05:44:06.057Z,18048
2017-07-21T05:45:07.304Z,18144
2017-07-21T05:46:08.590Z,18464
2017-07-21T05:47:09.826Z,18560
2017-07-21T05:48:11.062Z,18752
2017-07-21T05:49:12.308Z,18944
2017-07-21T05:50:13.553Z,19104
2017-07-21T05:51:14.806Z,19552
2017-07-21T05:52:16.061Z,19808
2017-07-21T05:53:17.298Z,19328
2017-07-21T05:54:18.579Z,20160
2017-07-21T05:55:19.826Z,19808
2017-07-21T05:56:21.116Z,21024
2017-07-21T05:57:22.348Z,21152
2017-07-21T05:58:23.620Z,21408
2017-07-21T05:59:24.881Z,21472
2017-07-21T06:00:26.134Z,21600
2017-07-21T06:01:27.388Z,22176
2017-07-21T06:02:28.628Z,23232
2017-07-21T06:03:29.868Z,23264
2017-07-21T06:04:31.117Z,23456
2017-07-21T06:05:32.353Z,22208
2017-07-21T06:06:33.642Z,23776
2017-07-21T06:07:34.884Z,24608
2017-07-21T06:08:36.126Z,25440
2017-07-21T06:09:37.372Z,25216
2017-07-21T06:10:38.630Z,25184
2017-07-21T06:11:39.874Z,25920
2017-07-21T06:12:41.135Z,26720
2017-07-21T06:13:42.358Z,27136
2017-07-21T06:14:43.596Z,27328
2017-07-21T06:15:44.853Z,27072
2017-07-21T06:16:46.146Z,24960
2017-07-21T06:17:47.373Z,25664
2017-07-21T06:18:48.690Z,24224
2017-07-21T06:19:49.998Z,28256
2017-07-21T06:20:51.250Z,28352
2017-07-21T06:21:52.479Z,29376
2017-07-21T06:22:53.722Z,28704
2017-07-21T06:23:54.957Z,28608
2017-07-21T06:24:56.208Z,29440
2017-07-21T06:25:57.462Z,29184
2017-07-21T06:26:58.710Z,26784
2017-07-21T06:27:59.959Z,28704
2017-07-21T06:29:01.221Z,28896
2017-07-21T06:30:02.477Z,27040
2017-07-21T06:31:03.772Z,26016
2017-07-21T06:32:05.027Z,23296
2017-07-21T06:33:06.268Z,29760
2017-07-21T06:34:07.518Z,15880
2017-07-21T06:35:08.766Z,19040
2017-07-21T06:36:10.127Z,19456
2017-07-21T06:37:11.283Z,24480
2017-07-21T06:38:12.684Z,31328
2017-07-21T06:39:13.974Z,34240
2017-07-21T06:40:15.193Z,35488
2017-07-21T06:41:16.444Z,34464
2017-07-21T06:42:17.691Z,34240
2017-07-21T06:43:19.056Z,36800
2017-07-21T06:44:20.374Z,31488
2017-07-21T06:45:21.607Z,15964
2017-07-21T06:46:22.875Z,39360
2017-07-21T06:47:24.130Z,36256
2017-07-21T06:48:25.402Z,12480
2017-07-21T06:49:26.707Z,42048
2017-07-21T06:50:27.962Z,41888
2017-07-21T06:51:29.210Z,40768
2017-07-21T06:52:30.471Z,41376
2017-07-21T06:53:31.712Z,39808
2017-07-21T06:54:33.007Z,37248
2017-07-21T06:55:34.263Z,36320
2017-07-21T06:56:35.558Z,42048
2017-07-21T06:57:36.856Z,42208
2017-07-21T06:58:38.174Z,42656
2017-07-21T06:59:39.417Z,41408
2017-07-21T07:00:40.666Z,46624
2017-07-21T07:01:41.917Z,48128
2017-07-21T07:02:43.162Z,48928
2017-07-21T07:03:44.412Z,49216
2017-07-21T07:04:45.678Z,47520
2017-07-21T07:05:46.942Z,48576
2017-07-21T07:06:48.268Z,49120
2017-07-21T07:07:49.530Z,47296
2017-07-21T07:08:50.884Z,45568
2017-07-21T07:09:52.145Z,47680
2017-07-21T07:10:53.384Z,51168
2017-07-21T07:11:54.633Z,51200
2017-07-21T07:12:55.966Z,37600
2017-07-21T07:13:57.204Z,48416
2017-07-21T07:14:58.480Z,52608
2017-07-21T07:15:59.736Z,54400
2017-07-21T07:17:00.988Z,54112
2017-07-21T07:18:02.341Z,55072
2017-07-21T07:19:03.586Z,54560
2017-07-21T07:20:04.832Z,57696
2017-07-21T07:21:06.113Z,57824
2017-07-21T07:22:07.375Z,56000
2017-07-21T07:23:08.635Z,56928
2017-07-21T07:24:09.882Z,55200
2017-07-21T07:25:11.231Z,56192
2017-07-21T07:26:12.600Z,60192
2017-07-21T07:27:13.922Z,61344
2017-07-21T07:28:15.158Z,62944
2017-07-21T07:29:16.411Z,62272
2017-07-21T07:30:17.661Z,63008
2017-07-21T07:31:18.911Z,64384
2017-07-21T07:32:20.166Z,61856
2017-07-21T07:33:21.430Z,64704
2017-07-21T07:34:22.664Z,65216
2017-07-21T07:35:23.929Z,63616
2017-07-21T07:36:25.230Z,61664
2017-07-21T07:37:26.481Z,59712
2017-07-21T07:38:27.783Z,61952
2017-07-21T07:39:29.038Z,64256
2017-07-21T07:40:30.284Z,63424
2017-07-21T07:41:31.543Z,63936
2017-07-21T07:42:32.813Z,59648
2017-07-21T07:43:34.123Z,61536
2017-07-21T07:44:35.371Z,68768
2017-07-21T07:45:36.641Z,71168
2017-07-21T07:46:37.929Z,65984
2017-07-21T07:47:39.183Z,59552
2017-07-21T07:48:40.438Z,57344
2017-07-21T07:49:41.693Z,54720
2017-07-21T07:50:42.976Z,53024
2017-07-21T07:51:44.225Z,50656
2017-07-21T07:52:45.472Z,48864
2017-07-21T07:53:46.747Z,50016
2017-07-21T07:54:47.972Z,50272
2017-07-21T07:55:49.331Z,48992
2017-07-21T07:56:50.600Z,50144
2017-07-21T07:57:51.903Z,54016
2017-07-21T07:58:53.164Z,56576
2017-07-21T07:59:54.415Z,58656
2017-07-21T08:00:55.665Z,62048
2017-07-21T08:01:56.974Z,66560
2017-07-21T08:02:58.333Z,66048
2017-07-21T08:03:59.620Z,63552
2017-07-21T08:05:00.850Z,65184
2017-07-21T08:06:02.110Z,69216
2017-07-21T08:07:03.381Z,69184
2017-07-21T08:08:04.646Z,68736
2017-07-21T08:09:05.897Z,67392
2017-07-21T08:10:07.163Z,68896
2017-07-21T08:11:08.471Z,73312
2017-07-21T08:12:09.714Z,76864
2017-07-21T08:13:10.994Z,76000
2017-07-21T08:14:12.252Z,75168
2017-07-21T08:15:13.513Z,74944
2017-07-21T08:16:14.810Z,75488
2017-07-21T08:17:16.093Z,77472
2017-07-21T08:18:17.372Z,67808
2017-07-21T08:19:18.623Z,74944
2017-07-21T08:20:19.983Z,73920
2017-07-21T08:21:21.167Z,71840
2017-07-21T08:22:22.428Z,70976
2017-07-21T08:23:23.707Z,72896
2017-07-21T08:24:24.972Z,70624
2017-07-21T08:25:26.213Z,72224
2017-07-21T08:26:27.492Z,71904
2017-07-21T08:27:28.845Z,72064
2017-07-21T08:28:30.119Z,73056
2017-07-21T08:29:31.351Z,74976
2017-07-21T08:30:32.612Z,77664
2017-07-21T08:31:33.867Z,77536
2017-07-21T08:32:35.150Z,76000
2017-07-21T08:33:36.405Z,74624
2017-07-21T08:34:37.664Z,75040
2017-07-21T08:35:38.929Z,75072
2017-07-21T08:36:40.177Z,72896
2017-07-21T08:37:41.433Z,77152
2017-07-21T08:38:42.692Z,78624
2017-07-21T08:39:43.993Z,79104
2017-07-21T08:40:45.250Z,78944
2017-07-21T08:41:46.539Z,79936
2017-07-21T08:42:47.791Z,80352
2017-07-21T08:43:49.038Z,80064
2017-07-21T08:44:50.320Z,81888
2017-07-21T08:45:51.638Z,77696
2017-07-21T08:46:52.950Z,77376
2017-07-21T08:47:54.201Z,82336
2017-07-21T08:48:55.454Z,84320
2017-07-21T08:49:56.713Z,81824
2017-07-21T08:50:58.036Z,79872
2017-07-21T08:51:59.229Z,79584
2017-07-21T08:53:00.613Z,77152
2017-07-21T08:54:01.847Z,76256
2017-07-21T08:55:03.094Z,78848
2017-07-21T08:56:04.432Z,81632
2017-07-21T08:57:05.684Z,82912
2017-07-21T08:58:06.942Z,83072
2017-07-21T08:59:08.200Z,84672
2017-07-21T09:00:09.450Z,85344
2017-07-21T09:01:10.707Z,81856
2017-07-21T09:02:11.980Z,80736
2017-07-21T09:03:13.227Z,83488
2017-07-21T09:04:14.484Z,85024
2017-07-21T09:05:15.904Z,85920
2017-07-21T09:06:17.153Z,89760
2017-07-21T09:07:18.402Z,89856
2017-07-21T09:08:19.682Z,86208
2017-07-21T09:09:20.944Z,86976
2017-07-21T09:10:22.290Z,87872
2017-07-21T09:11:23.547Z,87552
2017-07-21T09:12:24.793Z,86304
2017-07-21T09:13:26.056Z,82848
2017-07-21T09:14:27.295Z,83456
2017-07-21T09:15:28.597Z,85152
2017-07-21T09:16:29.874Z,83232
2017-07-21T09:17:31.151Z,87104
2017-07-21T09:18:32.422Z,92224
2017-07-21T09:19:33.677Z,92416
2017-07-21T09:20:34.969Z,94080
2017-07-21T09:21:36.194Z,94720
2017-07-21T09:22:37.472Z,90976
2017-07-21T09:23:38.827Z,89056
2017-07-21T09:24:40.071Z,90368
2017-07-21T09:25:41.340Z,88352
2017-07-21T09:26:42.785Z,88992
2017-07-21T09:27:44.044Z,94976
2017-07-21T09:28:45.319Z,93888
2017-07-21T09:29:46.654Z,91392
2017-07-21T09:30:47.905Z,93696
2017-07-21T09:31:49.162Z,97024
2017-07-21T09:32:50.497Z,96128
2017-07-21T09:33:51.759Z,95712
2017-07-21T09:34:53.058Z,99264
2017-07-21T09:35:54.320Z,97792
2017-07-21T09:36:55.565Z,94656
2017-07-21T09:37:56.830Z,98176
2017-07-21T09:38:58.124Z,102944
2017-07-21T09:39:59.352Z,101920
2017-07-21T09:41:00.651Z,99744
2017-07-21T09:42:01.912Z,97408
2017-07-21T09:43:03.161Z,98560
2017-07-21T09:44:04.464Z,101888
2017-07-21T09:45:05.722Z,101568
2017-07-21T09:46:07.035Z,99488
2017-07-21T09:47:08.306Z,97536
2017-07-21T09:48:09.570Z,100384
2017-07-21T09:49:10.827Z,100384
2017-07-21T09:50:12.082Z,99296
2017-07-21T09:51:13.360Z,100256
2017-07-21T09:52:14.616Z,99776
2017-07-21T09:53:15.879Z,97056
2017-07-21T09:54:17.144Z,97568
2017-07-21T09:55:18.451Z,103168
2017-07-21T09:56:19.699Z,104896
2017-07-21T09:57:20.953Z,100032
2017-07-21T09:58:22.200Z,100704
2017-07-21T09:59:23.448Z,103904
2017-07-21T10:00:24.724Z,104288
2017-07-21T10:01:25.976Z,106400
2017-07-21T10:02:27.233Z,104992
2017-07-21T10:03:28.500Z,106560
2017-07-21T10:04:29.785Z,108800
2017-07-21T10:05:31.088Z,105824
2017-07-21T10:06:32.397Z,102368
2017-07-21T10:07:33.646Z,104224
2017-07-21T10:08:34.907Z,109152
2017-07-21T10:09:36.245Z,111168
2017-07-21T10:10:37.497Z,110272
2017-07-21T10:11:38.764Z,110304
2017-07-21T10:12:40.075Z,110016
2017-07-21T10:13:41.332Z,111968
2017-07-21T10:14:42.591Z,111840
2017-07-21T10:15:43.849Z,97312
2017-07-21T10:16:45.121Z,85824
2017-07-21T10:17:46.470Z,84032
2017-07-21T10:18:47.725Z,85728
2017-07-21T10:19:48.997Z,84800
2017-07-21T10:20:50.376Z,81824
2017-07-21T10:21:51.510Z,79328
2017-07-21T10:22:52.872Z,83744
2017-07-21T10:23:54.157Z,86880
2017-07-21T10:24:55.421Z,83328
2017-07-21T10:25:56.672Z,83168
2017-07-21T10:26:57.944Z,82112
2017-07-21T10:27:59.263Z,82912
2017-07-21T10:29:00.569Z,81376
2017-07-21T10:30:01.872Z,80864
2017-07-21T10:31:03.138Z,80384
2017-07-21T10:32:04.469Z,81344
2017-07-21T10:33:05.653Z,83424
2017-07-21T10:34:06.982Z,82816
2017-07-21T10:35:08.276Z,81952
2017-07-21T10:36:09.544Z,83840
2017-07-21T10:37:10.794Z,84128
2017-07-21T10:38:12.050Z,80512
2017-07-21T10:39:13.407Z,10268
2017-07-21T10:40:14.701Z,10444
2017-07-21T10:41:16.018Z,77408
2017-07-21T10:42:17.288Z,16036
2017-07-21T10:43:18.552Z,13684
2017-07-21T10:44:19.830Z,10312
2017-07-21T10:45:21.130Z,10560
2017-07-21T10:46:22.392Z,10356
2017-07-21T10:47:23.647Z,9300
2017-07-21T10:48:24.899Z,8336
2017-07-21T10:49:26.165Z,7656
2017-07-21T10:50:27.581Z,7712
2017-07-21T10:51:28.866Z,8112
2017-07-21T10:52:30.121Z,8276
2017-07-21T10:53:31.371Z,7832
2017-07-21T10:54:32.623Z,7440
2017-07-21T10:55:33.882Z,7228
2017-07-21T10:56:35.113Z,7156
2017-07-21T10:57:36.470Z,7156
2017-07-21T10:58:37.727Z,7032
2017-07-21T10:59:38.987Z,6868
2017-07-21T11:00:40.277Z,6724
2017-07-21T11:01:41.524Z,6464
2017-07-21T11:02:42.779Z,6420
2017-07-21T11:03:44.118Z,6464
2017-07-21T11:04:45.360Z,6316
2017-07-21T11:05:46.609Z,6168
2017-07-21T11:06:47.865Z,6056
2017-07-21T11:07:49.118Z,6204
2017-07-21T11:08:50.380Z,6332
2017-07-21T11:09:51.617Z,6136
2017-07-21T11:10:53.013Z,6048
2017-07-21T11:11:54.266Z,6016
2017-07-21T11:12:55.510Z,5988
2017-07-21T11:13:56.753Z,5988
2017-07-21T11:14:58.013Z,6160
2017-07-21T11:15:59.256Z,6404
2017-07-21T11:17:00.502Z,6632
2017-07-21T11:18:01.867Z,6520
2017-07-21T11:19:03.129Z,6232
2017-07-21T11:20:04.377Z,5992
2017-07-21T11:21:05.626Z,5892
2017-07-21T11:22:06.873Z,5884
2017-07-21T11:23:08.122Z,5840
2017-07-21T11:24:09.375Z,5824
2017-07-21T11:25:10.690Z,5804
2017-07-21T11:26:11.935Z,5852
2017-07-21T11:27:13.193Z,5864
2017-07-21T11:28:14.443Z,5796
2017-07-21T11:29:15.707Z,6048
2017-07-21T11:30:16.951Z,6604
2017-07-21T11:31:18.286Z,6400
2017-07-21T11:32:19.555Z,6228
2017-07-21T11:33:20.802Z,5804
2017-07-21T11:34:22.078Z,5740
2017-07-21T11:35:23.313Z,5676
2017-07-21T11:36:24.572Z,5624
2017-07-21T11:37:25.825Z,5560
2017-07-21T11:38:27.070Z,5552
2017-07-21T11:39:28.317Z,5776
2017-07-21T11:40:29.560Z,5844
2017-07-21T11:41:30.911Z,5732
2017-07-21T11:42:32.168Z,5652
2017-07-21T11:43:33.414Z,5504
2017-07-21T11:44:34.670Z,5420
2017-07-21T11:45:35.941Z,5372
2017-07-21T11:46:37.162Z,5364
2017-07-21T11:47:38.430Z,5364
2017-07-21T11:48:39.726Z,5396
2017-07-21T11:49:40.967Z,5352
2017-07-21T11:50:42.216Z,5320
2017-07-21T11:51:43.453Z,5312
2017-07-21T11:52:44.705Z,5280
2017-07-21T11:53:46.010Z,5224
2017-07-21T11:54:47.253Z,5140
2017-07-21T11:55:48.507Z,5096
2017-07-21T11:56:49.750Z,5068
2017-07-21T11:57:50.989Z,5060
2017-07-21T11:58:52.240Z,5060
2017-07-21T11:59:53.559Z,5064
2017-07-21T12:00:54.874Z,5052
2017-07-21T12:01:56.130Z,5032
2017-07-21T12:02:57.374Z,5024
2017-07-21T12:03:58.617Z,5024
2017-07-21T12:04:59.874Z,5028
2017-07-21T12:06:01.253Z,5020
2017-07-21T12:07:02.474Z,4988
2017-07-21T12:08:03.721Z,4948
2017-07-21T12:09:04.960Z,4904
2017-07-21T12:10:06.198Z,4888
2017-07-21T12:11:07.442Z,4868
2017-07-21T12:12:08.806Z,4820
2017-07-21T12:13:10.059Z,4780
2017-07-21T12:14:11.307Z,4732
2017-07-21T12:15:12.548Z,4688
2017-07-21T12:16:13.782Z,4672
2017-07-21T12:17:15.025Z,4652
2017-07-21T12:18:16.278Z,4656
2017-07-21T12:19:17.508Z,4644
2017-07-21T12:20:18.909Z,4632
2017-07-21T12:21:20.151Z,4652
2017-07-21T12:22:21.396Z,4644
2017-07-21T12:23:22.635Z,4592
2017-07-21T12:24:23.888Z,4548
2017-07-21T12:25:25.215Z,4524
2017-07-21T12:26:26.452Z,4512
2017-07-21T12:27:27.717Z,4524
2017-07-21T12:28:28.980Z,4496
2017-07-21T12:29:30.217Z,4488
2017-07-21T12:30:31.468Z,4488
2017-07-21T12:31:32.766Z,4496
2017-07-21T12:32:34.016Z,4496
2017-07-21T12:33:35.257Z,4472
2017-07-21T12:34:36.516Z,4460
2017-07-21T12:35:37.785Z,4448
2017-07-21T12:36:39.022Z,4420
2017-07-21T12:37:40.335Z,4400
2017-07-21T12:38:41.561Z,4380
2017-07-21T12:39:42.871Z,4376
2017-07-21T12:40:44.233Z,4380
2017-07-21T12:41:45.473Z,4360
2017-07-21T12:42:46.714Z,4348
2017-07-21T12:43:47.946Z,4340
2017-07-21T12:44:49.190Z,4320
2017-07-21T12:45:50.416Z,4312
2017-07-21T12:46:51.663Z,4336
2017-07-21T12:47:52.903Z,4376
2017-07-21T12:48:54.142Z,4500
2017-07-21T12:49:55.452Z,4632
2017-07-21T12:50:56.718Z,4628
2017-07-21T12:51:57.971Z,4500
2017-07-21T12:52:59.245Z,4532
2017-07-21T12:54:00.481Z,4588
2017-07-21T12:55:01.725Z,4528
2017-07-21T12:56:02.962Z,4504
2017-07-21T12:57:04.225Z,4480
2017-07-21T12:58:05.459Z,4456
2017-07-21T12:59:06.719Z,4472
2017-07-21T13:00:08.050Z,4492
2017-07-21T13:01:09.293Z,4468
2017-07-21T13:02:10.552Z,4436
2017-07-21T13:03:11.793Z,4448
2017-07-21T13:04:13.038Z,4460
2017-07-21T13:05:14.285Z,4444
2017-07-21T13:06:15.525Z,4444
2017-07-21T13:07:16.794Z,4440
2017-07-21T13:08:18.024Z,4504
2017-07-21T13:09:19.316Z,4628
2017-07-21T13:10:20.542Z,4700
2017-07-21T13:11:21.805Z,4676
2017-07-21T13:12:23.110Z,4712
2017-07-21T13:13:24.409Z,4700
2017-07-21T13:14:25.646Z,4596
2017-07-21T13:15:26.895Z,4540
2017-07-21T13:16:28.182Z,4568
2017-07-21T13:17:29.392Z,4560
2017-07-21T13:18:30.643Z,4560
2017-07-21T13:19:31.883Z,4548
2017-07-21T13:20:33.121Z,4504
2017-07-21T13:21:34.367Z,4440
2017-07-21T13:22:35.598Z,4580
2017-07-21T13:23:36.849Z,4712
2017-07-21T13:24:38.186Z,4644
2017-07-21T13:25:39.423Z,4552
2017-07-21T13:26:40.673Z,4500
2017-07-21T13:27:41.922Z,4560
2017-07-21T13:28:43.293Z,4576
2017-07-21T13:29:44.611Z,4528
2017-07-21T13:30:45.854Z,4516
2017-07-21T13:31:47.091Z,4528
2017-07-21T13:32:48.342Z,4556
2017-07-21T13:33:49.578Z,4584
2017-07-21T13:34:50.865Z,4636
2017-07-21T13:35:52.130Z,4896
2017-07-21T13:36:53.389Z,5188
2017-07-21T13:37:54.624Z,5272
2017-07-21T13:38:55.872Z,5196
2017-07-21T13:39:57.161Z,5152
2017-07-21T13:40:58.517Z,5108
2017-07-21T13:41:59.736Z,5132
2017-07-21T13:43:01.087Z,5096
2017-07-21T13:44:02.346Z,4992